sensor_id;sensor_type;location;lat;lon;timestamp;temperature;humidity
5394;DHT22;2720;52.396;10.064;2022-11-11T00:00:20;7.50;99.90
5394;DHT22;2720;52.396;10.064;2022-11-11T00:02:48;7.50;99.90
5394;DHT22;2720;52.396;10.064;2022-11-11T00:05:15;7.40;99.90
5394;DHT22;2720;52.396;10.064;2022-11-11T00:07:43;7.50;99.90
5394;DHT22;2720;52.396;10.064;2022-11-11T00:10:10;7.50;99.90
5394;DHT22;2720;52.396;10.064;2022-11-11T00:12:37;7.50;99.90
5394;DHT22;2720;52.396;10.064;2022-11-11T00:15:05;7.50;99.90
5394;DHT22;2720;52.396;10.064;2022-11-11T00:17:32;7.50;99.90
5394;DHT22;2720;52.396;10.064;2022-11-11T00:23:04;7.50;99.90
5394;DHT22;2720;52.396;10.064;2022-11-11T00:25:50;7.50;99.90
5394;DHT22;2720;52.396;10.064;2022-11-11T00:28:18;7.50;99.90
5394;DHT22;2720;52.396;10.064;2022-11-11T00:30:45;7.50;99.90
5394;DHT22;2720;52.396;10.064;2022-11-11T00:33:12;7.50;99.90
5394;DHT22;2720;52.396;10.064;2022-11-11T00:35:39;7.50;99.90
5394;DHT22;2720;52.396;10.064;2022-11-11T00:38:22;7.40;99.90
5394;DHT22;2720;52.396;10.064;2022-11-11T00:41:06;7.40;99.90
5394;DHT22;2720;52.396;10.064;2022-11-11T00:43:33;7.40;99.90
5394;DHT22;2720;52.396;10.064;2022-11-11T00:46:00;7.40;99.90
5394;DHT22;2720;52.396;10.064;2022-11-11T00:48:40;7.40;99.90
5394;DHT22;2720;52.396;10.064;2022-11-11T00:51:25;7.40;99.90
5394;DHT22;2720;52.396;10.064;2022-11-11T00:53:54;7.40;99.90
5394;DHT22;2720;52.396;10.064;2022-11-11T00:56:21;7.30;99.90
5394;DHT22;2720;52.396;10.064;2022-11-11T00:58:48;7.30;99.90
5394;DHT22;2720;52.396;10.064;2022-11-11T01:01:16;7.30;99.90
5394;DHT22;2720;52.396;10.064;2022-11-11T01:03:43;7.30;99.90
5394;DHT22;2720;52.396;10.064;2022-11-11T01:06:11;7.30;99.90
5394;DHT22;2720;52.396;10.064;2022-11-11T01:08:38;7.30;99.90
5394;DHT22;2720;52.396;10.064;2022-11-11T01:11:13;7.30;99.90
5394;DHT22;2720;52.396;10.064;2022-11-11T01:13:40;7.30;99.90
5394;DHT22;2720;52.396;10.064;2022-11-11T01:16:11;7.30;99.90
5394;DHT22;2720;52.396;10.064;2022-11-11T01:18:39;7.30;99.90
5394;DHT22;2720;52.396;10.064;2022-11-11T01:21:08;7.30;99.90
5394;DHT22;2720;52.396;10.064;2022-11-11T01:23:37;7.30;99.90
5394;DHT22;2720;52.396;10.064;2022-11-11T01:26:08;7.30;99.90
5394;DHT22;2720;52.396;10.064;2022-11-11T01:28:36;7.30;99.90
5394;DHT22;2720;52.396;10.064;2022-11-11T01:31:05;7.20;99.90
5394;DHT22;2720;52.396;10.064;2022-11-11T01:33:32;7.20;99.90
5394;DHT22;2720;52.396;10.064;2022-11-11T01:36:05;7.20;99.90
5394;DHT22;2720;52.396;10.064;2022-11-11T01:38:32;7.20;99.90
5394;DHT22;2720;52.396;10.064;2022-11-11T01:40:59;7.20;99.90
5394;DHT22;2720;52.396;10.064;2022-11-11T01:43:47;7.10;99.90
5394;DHT22;2720;52.396;10.064;2022-11-11T01:46:20;7.10;99.90
5394;DHT22;2720;52.396;10.064;2022-11-11T01:48:52;7.00;99.90
5394;DHT22;2720;52.396;10.064;2022-11-11T01:51:41;7.10;99.90
5394;DHT22;2720;52.396;10.064;2022-11-11T01:54:11;7.10;99.90
5394;DHT22;2720;52.396;10.064;2022-11-11T01:56:40;7.10;99.90
5394;DHT22;2720;52.396;10.064;2022-11-11T01:59:11;7.10;99.90
5394;DHT22;2720;52.396;10.064;2022-11-11T02:01:41;7.10;99.90
5394;DHT22;2720;52.396;10.064;2022-11-11T02:04:09;7.10;99.90
5394;DHT22;2720;52.396;10.064;2022-11-11T02:06:57;7.00;99.90
5394;DHT22;2720;52.396;10.064;2022-11-11T02:09:25;7.10;99.90
5394;DHT22;2720;52.396;10.064;2022-11-11T02:11:54;7.00;99.90
5394;DHT22;2720;52.396;10.064;2022-11-11T02:14:44;7.10;99.90
5394;DHT22;2720;52.396;10.064;2022-11-11T02:17:13;7.10;99.90
5394;DHT22;2720;52.396;10.064;2022-11-11T02:19:47;7.10;99.90
5394;DHT22;2720;52.396;10.064;2022-11-11T02:22:19;7.10;99.90
5394;DHT22;2720;52.396;10.064;2022-11-11T02:24:50;7.10;99.90
5394;DHT22;2720;52.396;10.064;2022-11-11T02:27:18;7.10;99.90
5394;DHT22;2720;52.396;10.064;2022-11-11T02:29:48;7.10;99.90
5394;DHT22;2720;52.396;10.064;2022-11-11T02:32:16;7.20;99.90
5394;DHT22;2720;52.396;10.064;2022-11-11T02:34:43;7.20;99.90
5394;DHT22;2720;52.396;10.064;2022-11-11T02:37:10;7.10;99.90
5394;DHT22;2720;52.396;10.064;2022-11-11T02:39:41;7.10;99.90
5394;DHT22;2720;52.396;10.064;2022-11-11T02:42:12;7.00;99.90
5394;DHT22;2720;52.396;10.064;2022-11-11T02:44:40;7.00;99.90
5394;DHT22;2720;52.396;10.064;2022-11-11T02:47:07;7.00;99.90
5394;DHT22;2720;52.396;10.064;2022-11-11T02:49:34;7.10;99.90
5394;DHT22;2720;52.396;10.064;2022-11-11T02:52:01;7.00;99.90
5394;DHT22;2720;52.396;10.064;2022-11-11T02:54:28;7.00;99.90
5394;DHT22;2720;52.396;10.064;2022-11-11T02:56:55;7.10;99.90
5394;DHT22;2720;52.396;10.064;2022-11-11T02:59:36;7.10;99.90
5394;DHT22;2720;52.396;10.064;2022-11-11T03:02:04;7.00;99.90
5394;DHT22;2720;52.396;10.064;2022-11-11T03:04:32;7.00;99.90
5394;DHT22;2720;52.396;10.064;2022-11-11T03:06:59;7.10;99.90
5394;DHT22;2720;52.396;10.064;2022-11-11T03:09:26;7.10;99.90
5394;DHT22;2720;52.396;10.064;2022-11-11T03:11:53;7.10;99.90
5394;DHT22;2720;52.396;10.064;2022-11-11T03:14:20;7.10;99.90
5394;DHT22;2720;52.396;10.064;2022-11-11T03:16:49;7.10;99.90
5394;DHT22;2720;52.396;10.064;2022-11-11T03:19:33;7.10;99.90
5394;DHT22;2720;52.396;10.064;2022-11-11T03:22:00;7.10;99.90
5394;DHT22;2720;52.396;10.064;2022-11-11T03:24:28;7.20;99.90
5394;DHT22;2720;52.396;10.064;2022-11-11T03:27:15;7.30;99.90
5394;DHT22;2720;52.396;10.064;2022-11-11T03:29:41;7.30;99.90
5394;DHT22;2720;52.396;10.064;2022-11-11T03:32:10;7.30;99.90
5394;DHT22;2720;52.396;10.064;2022-11-11T03:34:37;7.20;99.90
5394;DHT22;2720;52.396;10.064;2022-11-11T03:37:05;7.30;99.90
5394;DHT22;2720;52.396;10.064;2022-11-11T03:39:50;7.30;99.90
5394;DHT22;2720;52.396;10.064;2022-11-11T03:42:17;7.20;99.90
5394;DHT22;2720;52.396;10.064;2022-11-11T03:44:44;7.20;99.90
5394;DHT22;2720;52.396;10.064;2022-11-11T03:47:13;7.10;99.90
5394;DHT22;2720;52.396;10.064;2022-11-11T03:49:41;7.20;99.90
5394;DHT22;2720;52.396;10.064;2022-11-11T03:52:10;7.10;99.90
5394;DHT22;2720;52.396;10.064;2022-11-11T03:54:37;7.20;99.90
5394;DHT22;2720;52.396;10.064;2022-11-11T03:57:04;7.20;99.90
5394;DHT22;2720;52.396;10.064;2022-11-11T03:59:49;7.20;99.90
5394;DHT22;2720;52.396;10.064;2022-11-11T04:02:17;7.20;99.90
5394;DHT22;2720;52.396;10.064;2022-11-11T04:05:01;7.30;99.90
5394;DHT22;2720;52.396;10.064;2022-11-11T04:07:45;7.30;99.90
5394;DHT22;2720;52.396;10.064;2022-11-11T04:10:30;7.40;99.90
5394;DHT22;2720;52.396;10.064;2022-11-11T04:12:58;7.40;99.90
5394;DHT22;2720;52.396;10.064;2022-11-11T04:15:43;7.40;99.90
5394;DHT22;2720;52.396;10.064;2022-11-11T04:18:29;7.50;99.90
5394;DHT22;2720;52.396;10.064;2022-11-11T04:21:13;7.40;99.90
5394;DHT22;2720;52.396;10.064;2022-11-11T04:23:57;7.40;99.90
5394;DHT22;2720;52.396;10.064;2022-11-11T04:26:24;7.30;99.90
5394;DHT22;2720;52.396;10.064;2022-11-11T04:28:50;7.30;99.90
5394;DHT22;2720;52.396;10.064;2022-11-11T04:31:35;7.20;99.90
5394;DHT22;2720;52.396;10.064;2022-11-11T04:34:23;7.20;99.90
5394;DHT22;2720;52.396;10.064;2022-11-11T04:36:49;7.10;99.90
5394;DHT22;2720;52.396;10.064;2022-11-11T04:39:16;7.10;99.90
5394;DHT22;2720;52.396;10.064;2022-11-11T04:42:00;7.00;99.90
5394;DHT22;2720;52.396;10.064;2022-11-11T04:44:27;7.00;99.90
5394;DHT22;2720;52.396;10.064;2022-11-11T04:47:12;6.90;99.90
5394;DHT22;2720;52.396;10.064;2022-11-11T04:49:40;7.00;99.90
5394;DHT22;2720;52.396;10.064;2022-11-11T04:52:08;6.90;99.90
5394;DHT22;2720;52.396;10.064;2022-11-11T04:54:55;7.00;99.90
5394;DHT22;2720;52.396;10.064;2022-11-11T04:57:40;7.00;99.90
5394;DHT22;2720;52.396;10.064;2022-11-11T05:00:09;6.90;99.90
5394;DHT22;2720;52.396;10.064;2022-11-11T05:02:37;6.90;99.90
5394;DHT22;2720;52.396;10.064;2022-11-11T05:05:24;6.90;99.90
5394;DHT22;2720;52.396;10.064;2022-11-11T05:07:51;6.80;99.90
5394;DHT22;2720;52.396;10.064;2022-11-11T05:10:36;6.60;99.90
5394;DHT22;2720;52.396;10.064;2022-11-11T05:13:04;6.60;99.90
5394;DHT22;2720;52.396;10.064;2022-11-11T05:15:49;6.50;99.90
5394;DHT22;2720;52.396;10.064;2022-11-11T05:18:33;6.50;99.90
5394;DHT22;2720;52.396;10.064;2022-11-11T05:21:22;6.40;99.90
5394;DHT22;2720;52.396;10.064;2022-11-11T05:23:51;6.30;99.90
5394;DHT22;2720;52.396;10.064;2022-11-11T05:26:35;6.40;99.90
5394;DHT22;2720;52.396;10.064;2022-11-11T05:29:02;6.40;99.90
5394;DHT22;2720;52.396;10.064;2022-11-11T05:31:30;6.40;99.90
5394;DHT22;2720;52.396;10.064;2022-11-11T05:33:57;6.30;99.90
5394;DHT22;2720;52.396;10.064;2022-11-11T05:36:25;6.30;99.90
5394;DHT22;2720;52.396;10.064;2022-11-11T05:38:52;6.30;99.90
5394;DHT22;2720;52.396;10.064;2022-11-11T05:41:19;6.30;99.90
5394;DHT22;2720;52.396;10.064;2022-11-11T05:43:46;6.40;99.90
5394;DHT22;2720;52.396;10.064;2022-11-11T05:46:13;6.50;99.90
5394;DHT22;2720;52.396;10.064;2022-11-11T05:48:40;6.50;99.90
5394;DHT22;2720;52.396;10.064;2022-11-11T05:51:21;6.60;99.90
5394;DHT22;2720;52.396;10.064;2022-11-11T05:53:55;6.70;99.90
5394;DHT22;2720;52.396;10.064;2022-11-11T05:56:23;6.60;99.90
5394;DHT22;2720;52.396;10.064;2022-11-11T05:58:49;6.60;99.90
5394;DHT22;2720;52.396;10.064;2022-11-11T06:01:17;6.70;99.90
5394;DHT22;2720;52.396;10.064;2022-11-11T06:03:44;6.70;99.90
5394;DHT22;2720;52.396;10.064;2022-11-11T06:06:11;6.80;99.90
5394;DHT22;2720;52.396;10.064;2022-11-11T06:08:39;6.80;99.90
5394;DHT22;2720;52.396;10.064;2022-11-11T06:11:07;6.80;99.90
5394;DHT22;2720;52.396;10.064;2022-11-11T06:13:34;6.80;99.90
5394;DHT22;2720;52.396;10.064;2022-11-11T06:16:02;6.90;99.90
5394;DHT22;2720;52.396;10.064;2022-11-11T06:18:29;6.90;99.90
5394;DHT22;2720;52.396;10.064;2022-11-11T06:20:57;6.90;99.90
5394;DHT22;2720;52.396;10.064;2022-11-11T06:23:25;6.90;99.90
5394;DHT22;2720;52.396;10.064;2022-11-11T06:25:53;6.80;99.90
5394;DHT22;2720;52.396;10.064;2022-11-11T06:28:39;6.80;99.90
5394;DHT22;2720;52.396;10.064;2022-11-11T06:31:07;6.80;99.90
5394;DHT22;2720;52.396;10.064;2022-11-11T06:33:34;6.70;99.90
5394;DHT22;2720;52.396;10.064;2022-11-11T06:36:02;6.80;99.90
5394;DHT22;2720;52.396;10.064;2022-11-11T06:38:29;6.70;99.90
5394;DHT22;2720;52.396;10.064;2022-11-11T06:40:57;6.70;99.90
5394;DHT22;2720;52.396;10.064;2022-11-11T06:43:24;6.70;99.90
5394;DHT22;2720;52.396;10.064;2022-11-11T06:45:53;6.70;99.90
5394;DHT22;2720;52.396;10.064;2022-11-11T06:48:21;6.70;99.90
5394;DHT22;2720;52.396;10.064;2022-11-11T06:50:48;6.70;99.90
5394;DHT22;2720;52.396;10.064;2022-11-11T06:53:17;6.70;99.90
5394;DHT22;2720;52.396;10.064;2022-11-11T06:55:44;6.70;99.90
5394;DHT22;2720;52.396;10.064;2022-11-11T06:58:12;6.80;99.90
5394;DHT22;2720;52.396;10.064;2022-11-11T07:00:41;6.80;99.90
5394;DHT22;2720;52.396;10.064;2022-11-11T07:03:11;6.90;99.90
5394;DHT22;2720;52.396;10.064;2022-11-11T07:05:38;6.90;99.90
5394;DHT22;2720;52.396;10.064;2022-11-11T07:08:08;7.00;99.90
5394;DHT22;2720;52.396;10.064;2022-11-11T07:10:36;7.00;99.90
5394;DHT22;2720;52.396;10.064;2022-11-11T07:13:04;7.00;99.90
5394;DHT22;2720;52.396;10.064;2022-11-11T07:15:31;7.10;99.90
5394;DHT22;2720;52.396;10.064;2022-11-11T07:17:58;7.10;99.90
5394;DHT22;2720;52.396;10.064;2022-11-11T07:20:27;7.20;99.90
5394;DHT22;2720;52.396;10.064;2022-11-11T07:22:54;7.20;99.90
5394;DHT22;2720;52.396;10.064;2022-11-11T07:25:21;7.30;99.90
5394;DHT22;2720;52.396;10.064;2022-11-11T07:27:48;7.40;99.90
5394;DHT22;2720;52.396;10.064;2022-11-11T07:30:16;7.40;99.90
5394;DHT22;2720;52.396;10.064;2022-11-11T07:32:44;7.50;99.90
5394;DHT22;2720;52.396;10.064;2022-11-11T07:35:12;7.50;99.90
5394;DHT22;2720;52.396;10.064;2022-11-11T07:37:41;7.50;99.90
5394;DHT22;2720;52.396;10.064;2022-11-11T07:40:10;7.50;99.90
5394;DHT22;2720;52.396;10.064;2022-11-11T07:42:37;7.60;99.90
5394;DHT22;2720;52.396;10.064;2022-11-11T07:45:05;7.70;99.90
5394;DHT22;2720;52.396;10.064;2022-11-11T07:47:32;7.80;99.90
5394;DHT22;2720;52.396;10.064;2022-11-11T07:50:00;7.90;99.90
5394;DHT22;2720;52.396;10.064;2022-11-11T07:52:27;8.00;99.90
5394;DHT22;2720;52.396;10.064;2022-11-11T07:54:56;8.10;99.90
5394;DHT22;2720;52.396;10.064;2022-11-11T07:57:23;8.20;99.90
5394;DHT22;2720;52.396;10.064;2022-11-11T07:59:50;8.30;99.90
5394;DHT22;2720;52.396;10.064;2022-11-11T08:02:17;8.40;99.90
5394;DHT22;2720;52.396;10.064;2022-11-11T08:04:45;8.50;99.90
5394;DHT22;2720;52.396;10.064;2022-11-11T08:07:12;8.50;99.90
5394;DHT22;2720;52.396;10.064;2022-11-11T08:09:39;8.60;99.90
5394;DHT22;2720;52.396;10.064;2022-11-11T08:12:08;8.70;99.90
5394;DHT22;2720;52.396;10.064;2022-11-11T08:14:53;8.80;99.90
5394;DHT22;2720;52.396;10.064;2022-11-11T08:17:19;8.90;99.90
5394;DHT22;2720;52.396;10.064;2022-11-11T08:19:46;9.00;99.90
5394;DHT22;2720;52.396;10.064;2022-11-11T08:22:13;9.10;99.90
5394;DHT22;2720;52.396;10.064;2022-11-11T08:24:40;9.20;99.90
5394;DHT22;2720;52.396;10.064;2022-11-11T08:27:09;9.30;99.90
5394;DHT22;2720;52.396;10.064;2022-11-11T08:29:36;9.40;99.90
5394;DHT22;2720;52.396;10.064;2022-11-11T08:32:03;9.40;99.90
5394;DHT22;2720;52.396;10.064;2022-11-11T08:34:30;9.60;99.90
5394;DHT22;2720;52.396;10.064;2022-11-11T08:36:57;9.70;99.90
5394;DHT22;2720;52.396;10.064;2022-11-11T08:39:24;9.80;99.90
5394;DHT22;2720;52.396;10.064;2022-11-11T08:41:51;9.90;99.90
5394;DHT22;2720;52.396;10.064;2022-11-11T08:44:19;10.00;99.90
5394;DHT22;2720;52.396;10.064;2022-11-11T08:46:46;10.10;99.90
5394;DHT22;2720;52.396;10.064;2022-11-11T08:49:13;10.20;99.90
5394;DHT22;2720;52.396;10.064;2022-11-11T08:51:40;10.30;99.90
5394;DHT22;2720;52.396;10.064;2022-11-11T08:54:07;10.40;99.90
5394;DHT22;2720;52.396;10.064;2022-11-11T08:56:34;10.50;99.90
5394;DHT22;2720;52.396;10.064;2022-11-11T08:59:01;10.60;99.90
5394;DHT22;2720;52.396;10.064;2022-11-11T09:01:30;10.70;99.90
5394;DHT22;2720;52.396;10.064;2022-11-11T09:03:57;10.80;99.90
5394;DHT22;2720;52.396;10.064;2022-11-11T09:06:24;10.80;99.90
5394;DHT22;2720;52.396;10.064;2022-11-11T09:08:51;10.80;99.90
5394;DHT22;2720;52.396;10.064;2022-11-11T09:11:18;10.90;99.90
5394;DHT22;2720;52.396;10.064;2022-11-11T09:13:46;10.90;99.90
5394;DHT22;2720;52.396;10.064;2022-11-11T09:16:13;11.00;99.90
5394;DHT22;2720;52.396;10.064;2022-11-11T09:18:41;11.10;99.90
5394;DHT22;2720;52.396;10.064;2022-11-11T09:21:08;11.10;99.90
5394;DHT22;2720;52.396;10.064;2022-11-11T09:23:35;11.10;99.90
5394;DHT22;2720;52.396;10.064;2022-11-11T09:26:02;11.20;99.90
5394;DHT22;2720;52.396;10.064;2022-11-11T09:28:30;11.30;99.90
5394;DHT22;2720;52.396;10.064;2022-11-11T09:30:58;11.40;99.90
5394;DHT22;2720;52.396;10.064;2022-11-11T09:33:26;11.50;99.90
5394;DHT22;2720;52.396;10.064;2022-11-11T09:35:56;11.60;99.90
5394;DHT22;2720;52.396;10.064;2022-11-11T09:38:23;11.70;99.90
5394;DHT22;2720;52.396;10.064;2022-11-11T09:40:59;11.80;99.90
5394;DHT22;2720;52.396;10.064;2022-11-11T09:43:36;11.90;99.90
5394;DHT22;2720;52.396;10.064;2022-11-11T09:52:00;12.00;99.90
5394;DHT22;2720;52.396;10.064;2022-11-11T09:54:35;12.10;99.90
5394;DHT22;2720;52.396;10.064;2022-11-11T09:57:06;12.20;99.90
5394;DHT22;2720;52.396;10.064;2022-11-11T09:59:44;12.10;99.90
5394;DHT22;2720;52.396;10.064;2022-11-11T10:02:18;12.20;99.90
5394;DHT22;2720;52.396;10.064;2022-11-11T10:04:56;12.30;99.90
5394;DHT22;2720;52.396;10.064;2022-11-11T10:07:33;12.40;99.90
5394;DHT22;2720;52.396;10.064;2022-11-11T10:10:07;12.50;99.90
5394;DHT22;2720;52.396;10.064;2022-11-11T10:12:41;12.60;99.90
5394;DHT22;2720;52.396;10.064;2022-11-11T10:15:12;12.60;99.90
5394;DHT22;2720;52.396;10.064;2022-11-11T10:17:48;12.70;99.90
5394;DHT22;2720;52.396;10.064;2022-11-11T10:20:21;12.80;99.90
5394;DHT22;2720;52.396;10.064;2022-11-11T10:22:55;12.90;99.90
5394;DHT22;2720;52.396;10.064;2022-11-11T10:25:26;13.00;99.90
5394;DHT22;2720;52.396;10.064;2022-11-11T10:27:56;13.00;99.90
5394;DHT22;2720;52.396;10.064;2022-11-11T10:30:25;13.00;99.90
5394;DHT22;2720;52.396;10.064;2022-11-11T10:32:55;13.00;99.90
5394;DHT22;2720;52.396;10.064;2022-11-11T10:35:24;13.00;99.90
5394;DHT22;2720;52.396;10.064;2022-11-11T10:38:00;13.00;99.90
5394;DHT22;2720;52.396;10.064;2022-11-11T10:40:36;13.10;99.90
5394;DHT22;2720;52.396;10.064;2022-11-11T10:43:05;13.20;99.90
5394;DHT22;2720;52.396;10.064;2022-11-11T10:45:40;13.40;99.90
5394;DHT22;2720;52.396;10.064;2022-11-11T10:48:14;13.60;99.90
5394;DHT22;2720;52.396;10.064;2022-11-11T10:50:45;13.70;99.90
5394;DHT22;2720;52.396;10.064;2022-11-11T10:53:17;13.80;99.90
5394;DHT22;2720;52.396;10.064;2022-11-11T10:55:51;13.90;99.90
5394;DHT22;2720;52.396;10.064;2022-11-11T10:58:25;13.90;99.90
5394;DHT22;2720;52.396;10.064;2022-11-11T11:00:54;13.90;99.90
5394;DHT22;2720;52.396;10.064;2022-11-11T11:03:24;14.00;99.90
5394;DHT22;2720;52.396;10.064;2022-11-11T11:05:58;13.90;99.90
5394;DHT22;2720;52.396;10.064;2022-11-11T11:08:34;14.00;99.90
5394;DHT22;2720;52.396;10.064;2022-11-11T11:11:08;14.00;99.90
5394;DHT22;2720;52.396;10.064;2022-11-11T11:13:41;14.00;99.90
5394;DHT22;2720;52.396;10.064;2022-11-11T11:16:14;14.10;99.90
5394;DHT22;2720;52.396;10.064;2022-11-11T11:18:42;14.20;99.90
5394;DHT22;2720;52.396;10.064;2022-11-11T11:21:10;14.40;99.90
5394;DHT22;2720;52.396;10.064;2022-11-11T11:23:40;14.50;99.90
5394;DHT22;2720;52.396;10.064;2022-11-11T11:26:09;14.70;99.90
5394;DHT22;2720;52.396;10.064;2022-11-11T11:28:52;14.80;99.90
5394;DHT22;2720;52.396;10.064;2022-11-11T11:31:34;15.10;99.90
5394;DHT22;2720;52.396;10.064;2022-11-11T11:34:01;15.40;99.90
5394;DHT22;2720;52.396;10.064;2022-11-11T11:36:28;15.80;99.90
5394;DHT22;2720;52.396;10.064;2022-11-11T11:38:57;15.90;99.90
5394;DHT22;2720;52.396;10.064;2022-11-11T11:41:36;16.20;99.90
5394;DHT22;2720;52.396;10.064;2022-11-11T11:44:24;16.60;99.90
5394;DHT22;2720;52.396;10.064;2022-11-11T11:46:54;16.90;99.90
5394;DHT22;2720;52.396;10.064;2022-11-11T11:49:35;17.10;99.90
5394;DHT22;2720;52.396;10.064;2022-11-11T11:52:10;17.50;99.90
5394;DHT22;2720;52.396;10.064;2022-11-11T11:54:49;17.50;99.90
5394;DHT22;2720;52.396;10.064;2022-11-11T11:57:41;17.70;99.90
5394;DHT22;2720;52.396;10.064;2022-11-11T12:00:16;17.90;99.90
5394;DHT22;2720;52.396;10.064;2022-11-11T12:03:05;18.20;99.90
5394;DHT22;2720;52.396;10.064;2022-11-11T12:05:38;18.40;99.90
5394;DHT22;2720;52.396;10.064;2022-11-11T12:08:25;18.60;99.90
5394;DHT22;2720;52.396;10.064;2022-11-11T12:11:02;18.60;99.90
5394;DHT22;2720;52.396;10.064;2022-11-11T12:13:41;18.60;99.90
5394;DHT22;2720;52.396;10.064;2022-11-11T12:16:20;18.70;99.90
5394;DHT22;2720;52.396;10.064;2022-11-11T12:19:06;18.60;99.90
5394;DHT22;2720;52.396;10.064;2022-11-11T12:24:35;18.70;99.90
5394;DHT22;2720;52.396;10.064;2022-11-11T12:27:12;18.90;99.90
5394;DHT22;2720;52.396;10.064;2022-11-11T12:29:52;18.80;99.90
5394;DHT22;2720;52.396;10.064;2022-11-11T12:32:42;18.70;99.90
5394;DHT22;2720;52.396;10.064;2022-11-11T12:35:23;18.60;99.90
5394;DHT22;2720;52.396;10.064;2022-11-11T12:38:00;18.60;99.90
5394;DHT22;2720;52.396;10.064;2022-11-11T12:40:37;18.50;99.90
5394;DHT22;2720;52.396;10.064;2022-11-11T12:43:16;18.50;99.90
5394;DHT22;2720;52.396;10.064;2022-11-11T12:45:49;18.30;99.90
5394;DHT22;2720;52.396;10.064;2022-11-11T12:48:33;18.10;99.90
5394;DHT22;2720;52.396;10.064;2022-11-11T12:51:12;18.00;99.90
5394;DHT22;2720;52.396;10.064;2022-11-11T12:53:46;18.00;99.90
5394;DHT22;2720;52.396;10.064;2022-11-11T12:56:24;17.80;99.90
5394;DHT22;2720;52.396;10.064;2022-11-11T12:59:02;17.70;99.90
5394;DHT22;2720;52.396;10.064;2022-11-11T13:01:42;17.80;99.90
5394;DHT22;2720;52.396;10.064;2022-11-11T13:04:27;17.90;99.90
5394;DHT22;2720;52.396;10.064;2022-11-11T13:07:13;17.90;99.90
5394;DHT22;2720;52.396;10.064;2022-11-11T13:09:55;17.90;99.90
5394;DHT22;2720;52.396;10.064;2022-11-11T13:12:30;17.80;99.90
5394;DHT22;2720;52.396;10.064;2022-11-11T13:15:09;17.80;99.90
5394;DHT22;2720;52.396;10.064;2022-11-11T13:17:37;17.80;99.90
5394;DHT22;2720;52.396;10.064;2022-11-11T13:20:14;17.60;99.90
5394;DHT22;2720;52.396;10.064;2022-11-11T13:22:43;17.60;99.90
5394;DHT22;2720;52.396;10.064;2022-11-11T13:25:13;17.60;99.90
5394;DHT22;2720;52.396;10.064;2022-11-11T13:27:46;17.40;99.90
5394;DHT22;2720;52.396;10.064;2022-11-11T13:30:33;17.30;99.90
5394;DHT22;2720;52.396;10.064;2022-11-11T13:33:06;17.20;99.90
5394;DHT22;2720;52.396;10.064;2022-11-11T13:35:36;17.30;99.90
5394;DHT22;2720;52.396;10.064;2022-11-11T13:38:05;17.30;99.90
5394;DHT22;2720;52.396;10.064;2022-11-11T13:40:36;17.40;99.90
5394;DHT22;2720;52.396;10.064;2022-11-11T13:43:05;17.40;99.90
5394;DHT22;2720;52.396;10.064;2022-11-11T13:45:50;17.20;99.90
5394;DHT22;2720;52.396;10.064;2022-11-11T13:48:25;17.00;99.90
5394;DHT22;2720;52.396;10.064;2022-11-11T13:50:53;16.90;99.90
5394;DHT22;2720;52.396;10.064;2022-11-11T13:53:37;16.80;99.90
5394;DHT22;2720;52.396;10.064;2022-11-11T13:56:05;16.60;99.90
5394;DHT22;2720;52.396;10.064;2022-11-11T13:58:35;16.50;99.90
5394;DHT22;2720;52.396;10.064;2022-11-11T14:01:06;16.40;99.90
5394;DHT22;2720;52.396;10.064;2022-11-11T14:03:36;16.20;99.90
5394;DHT22;2720;52.396;10.064;2022-11-11T14:06:28;16.10;99.90
5394;DHT22;2720;52.396;10.064;2022-11-11T14:08:56;16.00;99.90
5394;DHT22;2720;52.396;10.064;2022-11-11T14:11:29;15.90;99.90
5394;DHT22;2720;52.396;10.064;2022-11-11T14:13:58;15.90;99.90
5394;DHT22;2720;52.396;10.064;2022-11-11T14:17:01;15.80;99.90
5394;DHT22;2720;52.396;10.064;2022-11-11T14:19:29;15.70;99.90
5394;DHT22;2720;52.396;10.064;2022-11-11T14:21:59;15.60;99.90
5394;DHT22;2720;52.396;10.064;2022-11-11T14:24:33;15.50;99.90
5394;DHT22;2720;52.396;10.064;2022-11-11T14:27:02;15.30;99.90
5394;DHT22;2720;52.396;10.064;2022-11-11T14:29:31;15.20;99.90
5394;DHT22;2720;52.396;10.064;2022-11-11T14:32:24;15.00;99.90
5394;DHT22;2720;52.396;10.064;2022-11-11T14:35:09;14.90;99.90
5394;DHT22;2720;52.396;10.064;2022-11-11T14:40:29;14.60;99.90
5394;DHT22;2720;52.396;10.064;2022-11-11T14:42:57;14.40;99.90
5394;DHT22;2720;52.396;10.064;2022-11-11T14:46:01;14.30;99.90
5394;DHT22;2720;52.396;10.064;2022-11-11T14:48:58;14.10;99.90
5394;DHT22;2720;52.396;10.064;2022-11-11T14:51:42;13.90;99.90
5394;DHT22;2720;52.396;10.064;2022-11-11T14:54:21;13.70;99.90
5394;DHT22;2720;52.396;10.064;2022-11-11T14:56:57;13.60;99.90
5394;DHT22;2720;52.396;10.064;2022-11-11T14:59:26;13.50;99.90
5394;DHT22;2720;52.396;10.064;2022-11-11T15:01:55;13.40;99.90
5394;DHT22;2720;52.396;10.064;2022-11-11T15:04:25;13.30;99.90
5394;DHT22;2720;52.396;10.064;2022-11-11T15:06:56;13.20;99.90
5394;DHT22;2720;52.396;10.064;2022-11-11T15:09:50;13.20;99.90
5394;DHT22;2720;52.396;10.064;2022-11-11T15:12:25;13.00;99.90
5394;DHT22;2720;52.396;10.064;2022-11-11T15:15:04;13.00;99.90
5394;DHT22;2720;52.396;10.064;2022-11-11T15:17:41;12.90;99.90
5394;DHT22;2720;52.396;10.064;2022-11-11T15:20:29;12.80;99.90
5394;DHT22;2720;52.396;10.064;2022-11-11T15:23:02;12.70;99.90
5394;DHT22;2720;52.396;10.064;2022-11-11T15:25:44;12.50;99.90
5394;DHT22;2720;52.396;10.064;2022-11-11T15:28:29;12.30;99.90
5394;DHT22;2720;52.396;10.064;2022-11-11T15:31:07;12.20;99.90
5394;DHT22;2720;52.396;10.064;2022-11-11T15:33:44;12.00;99.90
5394;DHT22;2720;52.396;10.064;2022-11-11T15:36:18;11.90;99.90
5394;DHT22;2720;52.396;10.064;2022-11-11T15:38:50;11.80;99.90
5394;DHT22;2720;52.396;10.064;2022-11-11T15:41:22;11.60;99.90
5394;DHT22;2720;52.396;10.064;2022-11-11T15:43:51;11.60;99.90
5394;DHT22;2720;52.396;10.064;2022-11-11T15:46:22;11.50;99.90
5394;DHT22;2720;52.396;10.064;2022-11-11T15:48:50;11.50;99.90
5394;DHT22;2720;52.396;10.064;2022-11-11T15:51:27;11.40;99.90
5394;DHT22;2720;52.396;10.064;2022-11-11T15:54:08;11.30;99.90
5394;DHT22;2720;52.396;10.064;2022-11-11T15:56:36;11.20;99.90
5394;DHT22;2720;52.396;10.064;2022-11-11T15:59:17;11.20;99.90
5394;DHT22;2720;52.396;10.064;2022-11-11T16:01:44;11.20;99.90
5394;DHT22;2720;52.396;10.064;2022-11-11T16:04:16;11.10;99.90
5394;DHT22;2720;52.396;10.064;2022-11-11T16:06:45;11.10;99.90
5394;DHT22;2720;52.396;10.064;2022-11-11T16:09:15;11.10;99.90
5394;DHT22;2720;52.396;10.064;2022-11-11T16:11:44;11.00;99.90
5394;DHT22;2720;52.396;10.064;2022-11-11T16:14:20;11.00;99.90
5394;DHT22;2720;52.396;10.064;2022-11-11T16:16:50;10.90;99.90
5394;DHT22;2720;52.396;10.064;2022-11-11T16:19:26;10.90;99.90
5394;DHT22;2720;52.396;10.064;2022-11-11T16:21:59;10.90;99.90
5394;DHT22;2720;52.396;10.064;2022-11-11T16:24:31;10.90;99.90
5394;DHT22;2720;52.396;10.064;2022-11-11T16:27:02;10.80;99.90
5394;DHT22;2720;52.396;10.064;2022-11-11T16:29:34;11.00;99.90
5394;DHT22;2720;52.396;10.064;2022-11-11T16:32:33;11.00;99.90
5394;DHT22;2720;52.396;10.064;2022-11-11T16:35:00;10.80;99.90
5394;DHT22;2720;52.396;10.064;2022-11-11T16:37:28;10.80;99.90
5394;DHT22;2720;52.396;10.064;2022-11-11T16:39:55;10.90;99.90
5394;DHT22;2720;52.396;10.064;2022-11-11T16:42:24;10.70;99.90